Tiberius, Israel
Current Conditions -  °F | °C
As of 5:00 AM on Saturday 25 Oct 2014 (Local Time) from LLSD Reporting Station
Clear Clear  
Wind Chill: 66°   Ceiling: Unl
Heat Index: 66°   Visibility: 6mi
Dew Point: 55°   Wind: 5mph
Humidity: 68%   Direction: 110°ESE
Pressure: 29.97"   Gusts: NA
Location:  32.78°N, 35.48°E
Report Text: LLSD 250200Z 11004KT CAVOK 19/13 Q1015
Loading
Personal Weather Stations






























Interactive Weather Map
Tropical Storm Tracking
New forecast layout! Learn more

10-Day Weather Forecast

Advertisements
Track Severe Weather on mobile